sensor_id;sensor_type;location;lat;lon;timestamp;P1;durP1;ratioP1;P2;durP2;ratioP2
72194;SDS011;60095;50.180;9.032;2022-10-13T00:01:05;15.23;;;8.95;;
72194;SDS011;60095;50.180;9.032;2022-10-13T00:03:33;9.73;;;8.35;;
72194;SDS011;60095;50.180;9.032;2022-10-13T00:06:03;15.13;;;7.55;;
72194;SDS011;60095;50.180;9.032;2022-10-13T00:08:30;7.85;;;7.05;;
72194;SDS011;60095;50.180;9.032;2022-10-13T00:10:56;8.70;;;7.93;;
72194;SDS011;60095;50.180;9.032;2022-10-13T00:13:24;14.80;;;6.80;;
72194;SDS011;60095;50.180;9.032;2022-10-13T00:15:51;7.38;;;6.78;;
72194;SDS011;60095;50.180;9.032;2022-10-13T00:18:18;8.60;;;7.90;;
72194;SDS011;60095;50.180;9.032;2022-10-13T00:20:46;8.05;;;6.75;;
72194;SDS011;60095;50.180;9.032;2022-10-13T00:23:13;11.50;;;8.23;;
72194;SDS011;60095;50.180;9.032;2022-10-13T00:25:40;8.25;;;7.45;;
72194;SDS011;60095;50.180;9.032;2022-10-13T00:28:07;11.63;;;8.45;;
72194;SDS011;60095;50.180;9.032;2022-10-13T00:30:33;9.25;;;8.10;;
72194;SDS011;60095;50.180;9.032;2022-10-13T00:33:00;10.15;;;7.60;;
72194;SDS011;60095;50.180;9.032;2022-10-13T00:35:26;8.63;;;7.78;;
72194;SDS011;60095;50.180;9.032;2022-10-13T00:37:54;11.57;;;9.27;;
72194;SDS011;60095;50.180;9.032;2022-10-13T00:40:20;16.23;;;10.65;;
72194;SDS011;60095;50.180;9.032;2022-10-13T00:42:46;10.45;;;9.32;;
72194;SDS011;60095;50.180;9.032;2022-10-13T00:45:19;9.45;;;8.50;;
72194;SDS011;60095;50.180;9.032;2022-10-13T00:47:45;15.70;;;9.70;;
72194;SDS011;60095;50.180;9.032;2022-10-13T00:50:13;12.55;;;10.43;;
72194;SDS011;60095;50.180;9.032;2022-10-13T00:52:40;13.77;;;12.57;;
72194;SDS011;60095;50.180;9.032;2022-10-13T00:55:09;12.35;;;11.25;;
72194;SDS011;60095;50.180;9.032;2022-10-13T00:57:37;27.33;;;13.05;;
72194;SDS011;60095;50.180;9.032;2022-10-13T01:00:05;12.90;;;11.68;;
72194;SDS011;60095;50.180;9.032;2022-10-13T01:02:33;11.45;;;10.27;;
72194;SDS011;60095;50.180;9.032;2022-10-13T01:05:00;8.90;;;8.02;;
72194;SDS011;60095;50.180;9.032;2022-10-13T01:07:27;9.07;;;8.02;;
72194;SDS011;60095;50.180;9.032;2022-10-13T01:09:54;11.98;;;7.32;;
72194;SDS011;60095;50.180;9.032;2022-10-13T01:12:28;9.38;;;7.35;;
72194;SDS011;60095;50.180;9.032;2022-10-13T01:14:58;13.55;;;7.13;;
72194;SDS011;60095;50.180;9.032;2022-10-13T01:17:29;6.75;;;5.55;;
72194;SDS011;60095;50.180;9.032;2022-10-13T01:20:08;7.55;;;6.85;;
72194;SDS011;60095;50.180;9.032;2022-10-13T01:22:44;6.45;;;5.90;;
72194;SDS011;60095;50.180;9.032;2022-10-13T01:25:13;6.65;;;6.00;;
72194;SDS011;60095;50.180;9.032;2022-10-13T01:27:50;18.05;;;7.88;;
72194;SDS011;60095;50.180;9.032;2022-10-13T01:30:23;6.40;;;5.80;;
72194;SDS011;60095;50.180;9.032;2022-10-13T01:35:41;7.47;;;6.85;;
72194;SDS011;60095;50.180;9.032;2022-10-13T01:38:12;7.25;;;6.55;;
72194;SDS011;60095;50.180;9.032;2022-10-13T01:40:41;7.47;;;6.32;;
72194;SDS011;60095;50.180;9.032;2022-10-13T01:43:10;7.68;;;6.50;;
72194;SDS011;60095;50.180;9.032;2022-10-13T01:45:41;7.25;;;6.65;;
72194;SDS011;60095;50.180;9.032;2022-10-13T01:48:09;6.68;;;6.07;;
72194;SDS011;60095;50.180;9.032;2022-10-13T01:50:36;12.38;;;8.35;;
72194;SDS011;60095;50.180;9.032;2022-10-13T01:53:03;15.02;;;7.57;;
72194;SDS011;60095;50.180;9.032;2022-10-13T01:55:30;12.35;;;7.50;;
72194;SDS011;60095;50.180;9.032;2022-10-13T01:57:56;6.53;;;5.95;;
72194;SDS011;60095;50.180;9.032;2022-10-13T02:00:23;8.55;;;7.72;;
72194;SDS011;60095;50.180;9.032;2022-10-13T02:02:54;10.15;;;9.15;;
72194;SDS011;60095;50.180;9.032;2022-10-13T02:05:24;12.15;;;7.80;;
72194;SDS011;60095;50.180;9.032;2022-10-13T02:07:54;8.02;;;7.22;;
72194;SDS011;60095;50.180;9.032;2022-10-13T02:10:22;9.02;;;6.72;;
72194;SDS011;60095;50.180;9.032;2022-10-13T02:12:52;11.65;;;8.60;;
72194;SDS011;60095;50.180;9.032;2022-10-13T02:15:21;7.18;;;6.38;;
72194;SDS011;60095;50.180;9.032;2022-10-13T02:17:49;7.40;;;6.78;;
72194;SDS011;60095;50.180;9.032;2022-10-13T02:20:17;12.77;;;9.10;;
72194;SDS011;60095;50.180;9.032;2022-10-13T02:22:45;9.65;;;8.63;;
72194;SDS011;60095;50.180;9.032;2022-10-13T02:25:12;10.05;;;8.55;;
72194;SDS011;60095;50.180;9.032;2022-10-13T02:27:38;15.00;;;8.48;;
72194;SDS011;60095;50.180;9.032;2022-10-13T02:30:05;8.38;;;6.85;;
72194;SDS011;60095;50.180;9.032;2022-10-13T02:32:32;11.13;;;8.50;;
72194;SDS011;60095;50.180;9.032;2022-10-13T02:34:58;18.42;;;8.77;;
72194;SDS011;60095;50.180;9.032;2022-10-13T02:37:26;8.88;;;7.50;;
72194;SDS011;60095;50.180;9.032;2022-10-13T02:39:52;9.30;;;8.30;;
72194;SDS011;60095;50.180;9.032;2022-10-13T02:42:18;24.23;;;7.60;;
72194;SDS011;60095;50.180;9.032;2022-10-13T02:44:45;7.60;;;6.72;;
72194;SDS011;60095;50.180;9.032;2022-10-13T02:47:11;17.70;;;6.65;;
72194;SDS011;60095;50.180;9.032;2022-10-13T02:49:37;14.65;;;9.43;;
72194;SDS011;60095;50.180;9.032;2022-10-13T02:52:03;6.95;;;6.32;;
72194;SDS011;60095;50.180;9.032;2022-10-13T02:54:31;12.73;;;6.68;;
72194;SDS011;60095;50.180;9.032;2022-10-13T02:56:57;9.00;;;7.35;;
72194;SDS011;60095;50.180;9.032;2022-10-13T02:59:24;22.98;;;9.82;;
72194;SDS011;60095;50.180;9.032;2022-10-13T03:01:50;10.40;;;8.02;;
72194;SDS011;60095;50.180;9.032;2022-10-13T03:04:16;7.22;;;6.53;;
72194;SDS011;60095;50.180;9.032;2022-10-13T03:06:42;12.95;;;7.60;;
72194;SDS011;60095;50.180;9.032;2022-10-13T03:09:09;12.32;;;7.80;;
72194;SDS011;60095;50.180;9.032;2022-10-13T03:11:37;8.57;;;7.75;;
72194;SDS011;60095;50.180;9.032;2022-10-13T03:14:03;10.88;;;9.68;;
72194;SDS011;60095;50.180;9.032;2022-10-13T03:16:29;22.92;;;9.70;;
72194;SDS011;60095;50.180;9.032;2022-10-13T03:18:55;8.55;;;7.80;;
72194;SDS011;60095;50.180;9.032;2022-10-13T03:21:22;9.70;;;8.45;;
72194;SDS011;60095;50.180;9.032;2022-10-13T03:23:48;7.43;;;6.82;;
72194;SDS011;60095;50.180;9.032;2022-10-13T03:26:14;10.60;;;9.40;;
72194;SDS011;60095;50.180;9.032;2022-10-13T03:28:42;7.90;;;7.15;;
72194;SDS011;60095;50.180;9.032;2022-10-13T03:31:10;8.27;;;7.55;;
72194;SDS011;60095;50.180;9.032;2022-10-13T03:33:36;17.40;;;8.32;;
72194;SDS011;60095;50.180;9.032;2022-10-13T03:36:03;9.18;;;7.95;;
72194;SDS011;60095;50.180;9.032;2022-10-13T03:38:31;9.48;;;7.97;;
72194;SDS011;60095;50.180;9.032;2022-10-13T03:41:02;11.73;;;8.30;;
72194;SDS011;60095;50.180;9.032;2022-10-13T03:43:29;9.75;;;8.75;;
72194;SDS011;60095;50.180;9.032;2022-10-13T03:45:57;11.10;;;8.10;;
72194;SDS011;60095;50.180;9.032;2022-10-13T03:48:23;8.55;;;7.85;;
72194;SDS011;60095;50.180;9.032;2022-10-13T03:50:50;13.50;;;6.60;;
72194;SDS011;60095;50.180;9.032;2022-10-13T03:53:16;8.45;;;7.65;;
72194;SDS011;60095;50.180;9.032;2022-10-13T03:55:47;6.78;;;6.18;;
72194;SDS011;60095;50.180;9.032;2022-10-13T03:58:13;7.10;;;5.80;;
72194;SDS011;60095;50.180;9.032;2022-10-13T04:00:39;5.97;;;5.40;;
72194;SDS011;60095;50.180;9.032;2022-10-13T04:03:07;16.08;;;7.85;;
72194;SDS011;60095;50.180;9.032;2022-10-13T04:05:34;13.10;;;7.70;;
72194;SDS011;60095;50.180;9.032;2022-10-13T04:08:00;15.95;;;7.93;;
72194;SDS011;60095;50.180;9.032;2022-10-13T04:10:26;8.23;;;7.57;;
72194;SDS011;60095;50.180;9.032;2022-10-13T04:12:53;9.52;;;7.45;;
72194;SDS011;60095;50.180;9.032;2022-10-13T04:15:19;9.27;;;6.40;;
72194;SDS011;60095;50.180;9.032;2022-10-13T04:17:45;10.60;;;6.82;;
72194;SDS011;60095;50.180;9.032;2022-10-13T04:20:13;12.23;;;9.20;;
72194;SDS011;60095;50.180;9.032;2022-10-13T04:22:39;12.02;;;9.32;;
72194;SDS011;60095;50.180;9.032;2022-10-13T04:25:06;10.85;;;8.43;;
72194;SDS011;60095;50.180;9.032;2022-10-13T04:27:32;11.35;;;9.07;;
72194;SDS011;60095;50.180;9.032;2022-10-13T04:30:02;24.15;;;11.88;;
72194;SDS011;60095;50.180;9.032;2022-10-13T04:32:28;10.73;;;6.47;;
72194;SDS011;60095;50.180;9.032;2022-10-13T04:34:55;13.07;;;9.40;;
72194;SDS011;60095;50.180;9.032;2022-10-13T04:37:23;11.55;;;9.32;;
72194;SDS011;60095;50.180;9.032;2022-10-13T04:39:49;21.55;;;13.05;;
72194;SDS011;60095;50.180;9.032;2022-10-13T04:42:16;20.33;;;11.18;;
72194;SDS011;60095;50.180;9.032;2022-10-13T04:44:42;11.45;;;9.10;;
72194;SDS011;60095;50.180;9.032;2022-10-13T04:47:08;20.15;;;9.77;;
72194;SDS011;60095;50.180;9.032;2022-10-13T04:49:35;12.57;;;10.70;;
72194;SDS011;60095;50.180;9.032;2022-10-13T04:52:01;9.23;;;8.35;;
72194;SDS011;60095;50.180;9.032;2022-10-13T04:54:29;9.25;;;8.20;;
72194;SDS011;60095;50.180;9.032;2022-10-13T04:56:55;9.73;;;8.77;;
72194;SDS011;60095;50.180;9.032;2022-10-13T04:59:21;10.13;;;8.82;;
72194;SDS011;60095;50.180;9.032;2022-10-13T05:01:48;12.10;;;10.85;;
72194;SDS011;60095;50.180;9.032;2022-10-13T05:04:14;16.17;;;12.50;;
72194;SDS011;60095;50.180;9.032;2022-10-13T05:06:42;12.23;;;11.13;;
72194;SDS011;60095;50.180;9.032;2022-10-13T05:09:09;10.60;;;9.63;;
72194;SDS011;60095;50.180;9.032;2022-10-13T05:11:41;10.85;;;8.30;;
72194;SDS011;60095;50.180;9.032;2022-10-13T05:14:07;15.60;;;11.27;;
72194;SDS011;60095;50.180;9.032;2022-10-13T05:16:33;26.92;;;13.80;;
72194;SDS011;60095;50.180;9.032;2022-10-13T05:19:00;22.55;;;14.40;;
72194;SDS011;60095;50.180;9.032;2022-10-13T05:21:27;13.50;;;12.15;;
72194;SDS011;60095;50.180;9.032;2022-10-13T05:23:54;21.73;;;12.80;;
72194;SDS011;60095;50.180;9.032;2022-10-13T05:26:21;19.02;;;13.27;;
72194;SDS011;60095;50.180;9.032;2022-10-13T05:28:49;15.93;;;13.13;;
72194;SDS011;60095;50.180;9.032;2022-10-13T05:31:16;16.17;;;11.93;;
72194;SDS011;60095;50.180;9.032;2022-10-13T05:33:43;16.52;;;12.65;;
72194;SDS011;60095;50.180;9.032;2022-10-13T05:36:10;19.63;;;13.05;;
72194;SDS011;60095;50.180;9.032;2022-10-13T05:38:37;35.95;;;14.55;;
72194;SDS011;60095;50.180;9.032;2022-10-13T05:41:03;18.58;;;14.23;;
72194;SDS011;60095;50.180;9.032;2022-10-13T05:43:30;17.52;;;13.32;;
72194;SDS011;60095;50.180;9.032;2022-10-13T05:45:58;18.88;;;16.10;;
72194;SDS011;60095;50.180;9.032;2022-10-13T05:48:25;22.05;;;16.38;;
72194;SDS011;60095;50.180;9.032;2022-10-13T05:50:51;26.02;;;16.58;;
72194;SDS011;60095;50.180;9.032;2022-10-13T05:53:18;32.10;;;16.70;;
72194;SDS011;60095;50.180;9.032;2022-10-13T05:55:44;16.55;;;14.95;;
72194;SDS011;60095;50.180;9.032;2022-10-13T05:58:10;27.25;;;14.05;;
72194;SDS011;60095;50.180;9.032;2022-10-13T06:00:37;18.50;;;16.60;;
72194;SDS011;60095;50.180;9.032;2022-10-13T06:03:07;16.20;;;14.20;;
72194;SDS011;60095;50.180;9.032;2022-10-13T06:05:34;16.48;;;14.55;;
72194;SDS011;60095;50.180;9.032;2022-10-13T06:08:01;23.88;;;17.63;;
72194;SDS011;60095;50.180;9.032;2022-10-13T06:10:27;26.90;;;14.10;;
72194;SDS011;60095;50.180;9.032;2022-10-13T06:12:53;18.63;;;14.48;;
72194;SDS011;60095;50.180;9.032;2022-10-13T06:15:20;20.38;;;15.57;;
72194;SDS011;60095;50.180;9.032;2022-10-13T06:17:46;19.48;;;15.45;;
72194;SDS011;60095;50.180;9.032;2022-10-13T06:20:14;20.08;;;15.20;;
72194;SDS011;60095;50.180;9.032;2022-10-13T06:22:40;21.95;;;16.90;;
72194;SDS011;60095;50.180;9.032;2022-10-13T06:25:07;18.48;;;14.80;;
72194;SDS011;60095;50.180;9.032;2022-10-13T06:27:34;30.95;;;16.73;;
72194;SDS011;60095;50.180;9.032;2022-10-13T06:30:00;21.70;;;16.25;;
72194;SDS011;60095;50.180;9.032;2022-10-13T06:32:27;27.40;;;17.77;;
72194;SDS011;60095;50.180;9.032;2022-10-13T06:34:53;37.78;;;18.20;;
72194;SDS011;60095;50.180;9.032;2022-10-13T06:37:21;17.27;;;15.57;;
72194;SDS011;60095;50.180;9.032;2022-10-13T06:39:47;23.20;;;16.40;;
72194;SDS011;60095;50.180;9.032;2022-10-13T06:42:13;30.02;;;19.20;;
72194;SDS011;60095;50.180;9.032;2022-10-13T06:44:40;17.45;;;15.77;;
72194;SDS011;60095;50.180;9.032;2022-10-13T06:47:06;29.95;;;18.48;;
72194;SDS011;60095;50.180;9.032;2022-10-13T06:49:32;28.02;;;19.60;;
72194;SDS011;60095;50.180;9.032;2022-10-13T06:51:59;24.67;;;17.30;;
72194;SDS011;60095;50.180;9.032;2022-10-13T06:54:26;28.23;;;17.63;;
72194;SDS011;60095;50.180;9.032;2022-10-13T06:56:53;35.70;;;18.92;;
72194;SDS011;60095;50.180;9.032;2022-10-13T06:59:19;25.95;;;19.17;;
72194;SDS011;60095;50.180;9.032;2022-10-13T07:01:45;38.35;;;22.35;;
72194;SDS011;60095;50.180;9.032;2022-10-13T07:04:13;25.73;;;20.63;;
72194;SDS011;60095;50.180;9.032;2022-10-13T07:06:41;36.45;;;24.35;;
72194;SDS011;60095;50.180;9.032;2022-10-13T07:09:07;26.58;;;21.02;;
72194;SDS011;60095;50.180;9.032;2022-10-13T07:11:35;21.42;;;18.48;;
72194;SDS011;60095;50.180;9.032;2022-10-13T07:14:01;23.42;;;17.55;;
72194;SDS011;60095;50.180;9.032;2022-10-13T07:16:27;32.53;;;16.98;;
72194;SDS011;60095;50.180;9.032;2022-10-13T07:18:54;28.42;;;20.30;;
72194;SDS011;60095;50.180;9.032;2022-10-13T07:21:20;25.42;;;17.42;;
72194;SDS011;60095;50.180;9.032;2022-10-13T07:23:46;22.63;;;18.08;;
72194;SDS011;60095;50.180;9.032;2022-10-13T07:26:13;24.92;;;18.92;;
72194;SDS011;60095;50.180;9.032;2022-10-13T07:28:42;18.10;;;16.20;;
72194;SDS011;60095;50.180;9.032;2022-10-13T07:31:09;23.15;;;17.35;;
72194;SDS011;60095;50.180;9.032;2022-10-13T07:33:37;25.95;;;17.10;;
72194;SDS011;60095;50.180;9.032;2022-10-13T07:36:04;20.67;;;18.45;;
72194;SDS011;60095;50.180;9.032;2022-10-13T07:38:31;19.90;;;15.77;;
72194;SDS011;60095;50.180;9.032;2022-10-13T07:40:58;26.35;;;17.23;;
72194;SDS011;60095;50.180;9.032;2022-10-13T07:43:24;19.67;;;17.40;;
72194;SDS011;60095;50.180;9.032;2022-10-13T07:45:52;25.15;;;16.95;;
72194;SDS011;60095;50.180;9.032;2022-10-13T07:48:18;25.23;;;19.65;;
72194;SDS011;60095;50.180;9.032;2022-10-13T07:50:45;19.02;;;16.95;;
72194;SDS011;60095;50.180;9.032;2022-10-13T07:53:12;30.98;;;16.38;;
72194;SDS011;60095;50.180;9.032;2022-10-13T07:55:38;28.17;;;18.70;;
72194;SDS011;60095;50.180;9.032;2022-10-13T07:58:05;23.48;;;16.67;;
72194;SDS011;60095;50.180;9.032;2022-10-13T08:00:31;29.10;;;20.42;;
72194;SDS011;60095;50.180;9.032;2022-10-13T08:02:59;21.83;;;18.73;;
72194;SDS011;60095;50.180;9.032;2022-10-13T08:05:25;24.05;;;17.27;;
72194;SDS011;60095;50.180;9.032;2022-10-13T08:07:51;22.45;;;17.17;;
72194;SDS011;60095;50.180;9.032;2022-10-13T08:10:18;35.05;;;20.23;;
72194;SDS011;60095;50.180;9.032;2022-10-13T08:12:45;26.63;;;17.77;;
72194;SDS011;60095;50.180;9.032;2022-10-13T08:15:11;20.75;;;18.30;;
72194;SDS011;60095;50.180;9.032;2022-10-13T08:17:37;19.20;;;16.95;;
72194;SDS011;60095;50.180;9.032;2022-10-13T08:20:05;24.60;;;17.70;;
72194;SDS011;60095;50.180;9.032;2022-10-13T08:22:32;25.17;;;18.15;;
72194;SDS011;60095;50.180;9.032;2022-10-13T08:24:59;22.65;;;20.30;;
72194;SDS011;60095;50.180;9.032;2022-10-13T08:27:26;20.63;;;18.42;;
72194;SDS011;60095;50.180;9.032;2022-10-13T08:29:53;38.22;;;23.40;;
72194;SDS011;60095;50.180;9.032;2022-10-13T08:32:19;30.23;;;22.08;;
72194;SDS011;60095;50.180;9.032;2022-10-13T08:34:46;22.33;;;17.98;;
72194;SDS011;60095;50.180;9.032;2022-10-13T08:37:14;21.45;;;19.15;;
72194;SDS011;60095;50.180;9.032;2022-10-13T08:39:40;28.63;;;21.42;;
72194;SDS011;60095;50.180;9.032;2022-10-13T08:42:11;26.77;;;20.35;;
72194;SDS011;60095;50.180;9.032;2022-10-13T08:44:39;21.45;;;19.20;;
72194;SDS011;60095;50.180;9.032;2022-10-13T08:47:07;26.48;;;20.80;;
72194;SDS011;60095;50.180;9.032;2022-10-13T08:49:37;22.98;;;18.65;;
72194;SDS011;60095;50.180;9.032;2022-10-13T08:52:05;23.17;;;20.92;;
72194;SDS011;60095;50.180;9.032;2022-10-13T08:54:32;18.98;;;16.95;;
72194;SDS011;60095;50.180;9.032;2022-10-13T08:56:59;20.77;;;18.45;;
72194;SDS011;60095;50.180;9.032;2022-10-13T08:59:25;27.88;;;18.45;;
72194;SDS011;60095;50.180;9.032;2022-10-13T09:01:52;22.48;;;20.17;;
72194;SDS011;60095;50.180;9.032;2022-10-13T09:04:24;18.15;;;16.45;;
72194;SDS011;60095;50.180;9.032;2022-10-13T09:06:52;23.42;;;18.17;;
72194;SDS011;60095;50.180;9.032;2022-10-13T09:09:20;23.50;;;19.27;;
72194;SDS011;60095;50.180;9.032;2022-10-13T09:11:48;23.00;;;17.83;;
72194;SDS011;60095;50.180;9.032;2022-10-13T09:14:19;18.25;;;16.63;;
72194;SDS011;60095;50.180;9.032;2022-10-13T09:16:45;23.92;;;17.85;;
72194;SDS011;60095;50.180;9.032;2022-10-13T09:19:13;26.50;;;17.10;;
72194;SDS011;60095;50.180;9.032;2022-10-13T09:21:40;25.48;;;17.52;;
72194;SDS011;60095;50.180;9.032;2022-10-13T09:24:07;19.08;;;15.50;;
72194;SDS011;60095;50.180;9.032;2022-10-13T09:26:37;20.33;;;18.35;;
72194;SDS011;60095;50.180;9.032;2022-10-13T09:29:07;28.00;;;18.52;;
72194;SDS011;60095;50.180;9.032;2022-10-13T09:31:34;17.75;;;15.95;;
72194;SDS011;60095;50.180;9.032;2022-10-13T09:34:05;17.67;;;15.88;;
72194;SDS011;60095;50.180;9.032;2022-10-13T09:36:37;21.60;;;18.25;;
72194;SDS011;60095;50.180;9.032;2022-10-13T09:39:04;22.05;;;17.73;;
72194;SDS011;60095;50.180;9.032;2022-10-13T09:41:30;23.25;;;19.48;;
72194;SDS011;60095;50.180;9.032;2022-10-13T09:43:59;23.10;;;18.77;;
72194;SDS011;60095;50.180;9.032;2022-10-13T09:46:27;18.05;;;16.40;;
72194;SDS011;60095;50.180;9.032;2022-10-13T09:48:55;24.65;;;18.15;;
72194;SDS011;60095;50.180;9.032;2022-10-13T09:51:33;26.38;;;20.65;;
72194;SDS011;60095;50.180;9.032;2022-10-13T09:54:00;20.48;;;18.35;;
72194;SDS011;60095;50.180;9.032;2022-10-13T09:56:28;22.15;;;19.80;;
72194;SDS011;60095;50.180;9.032;2022-10-13T09:58:57;24.02;;;20.02;;
72194;SDS011;60095;50.180;9.032;2022-10-13T10:01:29;22.98;;;20.40;;
72194;SDS011;60095;50.180;9.032;2022-10-13T10:03:57;30.17;;;21.83;;
72194;SDS011;60095;50.180;9.032;2022-10-13T10:06:24;25.02;;;22.35;;
72194;SDS011;60095;50.180;9.032;2022-10-13T10:08:52;33.35;;;23.73;;
72194;SDS011;60095;50.180;9.032;2022-10-13T10:11:21;22.80;;;20.58;;
72194;SDS011;60095;50.180;9.032;2022-10-13T10:13:49;57.33;;;22.88;;
72194;SDS011;60095;50.180;9.032;2022-10-13T10:16:18;24.17;;;21.77;;
72194;SDS011;60095;50.180;9.032;2022-10-13T10:18:48;26.83;;;21.30;;
72194;SDS011;60095;50.180;9.032;2022-10-13T10:21:20;34.33;;;24.58;;
72194;SDS011;60095;50.180;9.032;2022-10-13T10:23:50;33.70;;;23.15;;
72194;SDS011;60095;50.180;9.032;2022-10-13T10:26:19;33.92;;;21.70;;
72194;SDS011;60095;50.180;9.032;2022-10-13T10:31:31;23.75;;;21.50;;
72194;SDS011;60095;50.180;9.032;2022-10-13T10:34:20;31.75;;;22.25;;
72194;SDS011;60095;50.180;9.032;2022-10-13T10:36:49;33.22;;;22.40;;
72194;SDS011;60095;50.180;9.032;2022-10-13T10:39:20;27.85;;;23.67;;
72194;SDS011;60095;50.180;9.032;2022-10-13T10:41:49;36.55;;;23.60;;
72194;SDS011;60095;50.180;9.032;2022-10-13T10:44:18;25.95;;;21.65;;
72194;SDS011;60095;50.180;9.032;2022-10-13T10:46:47;29.85;;;24.63;;
72194;SDS011;60095;50.180;9.032;2022-10-13T10:49:15;22.77;;;20.70;;
72194;SDS011;60095;50.180;9.032;2022-10-13T10:51:44;29.88;;;24.55;;
72194;SDS011;60095;50.180;9.032;2022-10-13T10:54:16;23.88;;;21.27;;
72194;SDS011;60095;50.180;9.032;2022-10-13T10:56:46;27.15;;;24.27;;
72194;SDS011;60095;50.180;9.032;2022-10-13T10:59:21;39.72;;;23.63;;
72194;SDS011;60095;50.180;9.032;2022-10-13T11:01:54;23.05;;;20.92;;
72194;SDS011;60095;50.180;9.032;2022-10-13T11:04:30;26.02;;;20.98;;
72194;SDS011;60095;50.180;9.032;2022-10-13T11:06:58;29.85;;;22.00;;
72194;SDS011;60095;50.180;9.032;2022-10-13T11:12:14;24.52;;;18.85;;
72194;SDS011;60095;50.180;9.032;2022-10-13T11:14:47;23.52;;;21.10;;
72194;SDS011;60095;50.180;9.032;2022-10-13T11:17:15;26.95;;;21.85;;
72194;SDS011;60095;50.180;9.032;2022-10-13T11:19:42;26.40;;;20.88;;
72194;SDS011;60095;50.180;9.032;2022-10-13T11:22:14;19.63;;;17.38;;
72194;SDS011;60095;50.180;9.032;2022-10-13T11:24:44;22.05;;;18.48;;
72194;SDS011;60095;50.180;9.032;2022-10-13T11:27:17;22.40;;;19.75;;
72194;SDS011;60095;50.180;9.032;2022-10-13T11:29:51;32.03;;;18.00;;
72194;SDS011;60095;50.180;9.032;2022-10-13T11:35:16;21.38;;;18.55;;
72194;SDS011;60095;50.180;9.032;2022-10-13T11:37:46;25.27;;;20.40;;
72194;SDS011;60095;50.180;9.032;2022-10-13T11:40:15;27.25;;;19.27;;
72194;SDS011;60095;50.180;9.032;2022-10-13T11:45:33;20.42;;;18.45;;
72194;SDS011;60095;50.180;9.032;2022-10-13T11:48:26;20.23;;;17.42;;
72194;SDS011;60095;50.180;9.032;2022-10-13T11:50:59;20.73;;;18.00;;
72194;SDS011;60095;50.180;9.032;2022-10-13T11:53:31;24.45;;;21.08;;
72194;SDS011;60095;50.180;9.032;2022-10-13T11:56:17;23.83;;;21.00;;
72194;SDS011;60095;50.180;9.032;2022-10-13T11:58:43;36.00;;;19.85;;
72194;SDS011;60095;50.180;9.032;2022-10-13T12:01:11;24.95;;;17.48;;
72194;SDS011;60095;50.180;9.032;2022-10-13T12:03:38;22.63;;;15.85;;
72194;SDS011;60095;50.180;9.032;2022-10-13T12:06:06;18.50;;;16.60;;
72194;SDS011;60095;50.180;9.032;2022-10-13T12:08:34;22.67;;;17.73;;
72194;SDS011;60095;50.180;9.032;2022-10-13T12:11:01;24.52;;;15.25;;
72194;SDS011;60095;50.180;9.032;2022-10-13T12:13:32;15.63;;;14.23;;
72194;SDS011;60095;50.180;9.032;2022-10-13T12:15:59;18.50;;;14.32;;
72194;SDS011;60095;50.180;9.032;2022-10-13T12:18:28;15.20;;;13.60;;
72194;SDS011;60095;50.180;9.032;2022-10-13T12:20:58;26.30;;;14.82;;
72194;SDS011;60095;50.180;9.032;2022-10-13T12:23:25;18.58;;;13.13;;
72194;SDS011;60095;50.180;9.032;2022-10-13T12:25:53;23.60;;;13.05;;
72194;SDS011;60095;50.180;9.032;2022-10-13T12:28:23;11.75;;;10.65;;
72194;SDS011;60095;50.180;9.032;2022-10-13T12:30:51;13.60;;;10.35;;
72194;SDS011;60095;50.180;9.032;2022-10-13T12:33:26;19.08;;;11.20;;
72194;SDS011;60095;50.180;9.032;2022-10-13T12:35:52;13.68;;;10.80;;
72194;SDS011;60095;50.180;9.032;2022-10-13T12:38:19;14.88;;;12.10;;
72194;SDS011;60095;50.180;9.032;2022-10-13T12:40:46;10.52;;;9.63;;
72194;SDS011;60095;50.180;9.032;2022-10-13T12:43:15;17.60;;;10.13;;
72194;SDS011;60095;50.180;9.032;2022-10-13T12:45:42;14.82;;;10.90;;
72194;SDS011;60095;50.180;9.032;2022-10-13T12:50:49;10.95;;;9.57;;
72194;SDS011;60095;50.180;9.032;2022-10-13T12:53:17;19.17;;;9.15;;
72194;SDS011;60095;50.180;9.032;2022-10-13T12:55:53;13.85;;;7.97;;
72194;SDS011;60095;50.180;9.032;2022-10-13T12:58:25;10.90;;;7.72;;
72194;SDS011;60095;50.180;9.032;2022-10-13T13:00:55;13.18;;;8.32;;
72194;SDS011;60095;50.180;9.032;2022-10-13T13:03:24;14.13;;;8.75;;
72194;SDS011;60095;50.180;9.032;2022-10-13T13:06:05;9.57;;;8.43;;
72194;SDS011;60095;50.180;9.032;2022-10-13T13:08:31;23.08;;;10.30;;
72194;SDS011;60095;50.180;9.032;2022-10-13T13:10:59;14.75;;;8.82;;
72194;SDS011;60095;50.180;9.032;2022-10-13T13:13:27;8.23;;;7.43;;
72194;SDS011;60095;50.180;9.032;2022-10-13T13:15:53;10.48;;;9.00;;
72194;SDS011;60095;50.180;9.032;2022-10-13T13:18:42;9.27;;;7.80;;
72194;SDS011;60095;50.180;9.032;2022-10-13T13:21:10;11.18;;;8.73;;
72194;SDS011;60095;50.180;9.032;2022-10-13T13:23:36;12.82;;;9.13;;
72194;SDS011;60095;50.180;9.032;2022-10-13T13:26:05;8.82;;;8.00;;
72194;SDS011;60095;50.180;9.032;2022-10-13T13:28:36;10.82;;;8.88;;
72194;SDS011;60095;50.180;9.032;2022-10-13T13:31:03;10.82;;;9.73;;
72194;SDS011;60095;50.180;9.032;2022-10-13T13:33:29;12.75;;;11.00;;
72194;SDS011;60095;50.180;9.032;2022-10-13T13:35:56;7.93;;;7.13;;
72194;SDS011;60095;50.180;9.032;2022-10-13T13:38:22;9.18;;;8.15;;
72194;SDS011;60095;50.180;9.032;2022-10-13T13:40:48;9.98;;;7.65;;
72194;SDS011;60095;50.180;9.032;2022-10-13T13:43:14;8.63;;;7.72;;
72194;SDS011;60095;50.180;9.032;2022-10-13T13:45:42;9.70;;;8.65;;
72194;SDS011;60095;50.180;9.032;2022-10-13T13:48:09;8.95;;;8.02;;
72194;SDS011;60095;50.180;9.032;2022-10-13T13:50:36;9.93;;;8.40;;
72194;SDS011;60095;50.180;9.032;2022-10-13T13:53:03;11.77;;;8.18;;
72194;SDS011;60095;50.180;9.032;2022-10-13T13:55:29;10.30;;;8.45;;
72194;SDS011;60095;50.180;9.032;2022-10-13T13:57:56;17.63;;;8.85;;
72194;SDS011;60095;50.180;9.032;2022-10-13T14:00:22;15.20;;;9.98;;
72194;SDS011;60095;50.180;9.032;2022-10-13T14:02:50;11.10;;;9.15;;
72194;SDS011;60095;50.180;9.032;2022-10-13T14:05:16;11.32;;;8.52;;
72194;SDS011;60095;50.180;9.032;2022-10-13T14:07:42;8.48;;;7.72;;
72194;SDS011;60095;50.180;9.032;2022-10-13T14:10:09;10.82;;;7.82;;
72194;SDS011;60095;50.180;9.032;2022-10-13T14:12:35;10.75;;;7.70;;
72194;SDS011;60095;50.180;9.032;2022-10-13T14:15:02;9.27;;;7.57;;
72194;SDS011;60095;50.180;9.032;2022-10-13T14:17:28;11.43;;;8.73;;
72194;SDS011;60095;50.180;9.032;2022-10-13T14:19:56;17.58;;;7.95;;
72194;SDS011;60095;50.180;9.032;2022-10-13T14:22:22;15.18;;;9.30;;
72194;SDS011;60095;50.180;9.032;2022-10-13T14:24:48;9.48;;;8.52;;
72194;SDS011;60095;50.180;9.032;2022-10-13T14:33:25;13.18;;;8.25;;
72194;SDS011;60095;50.180;9.032;2022-10-13T14:35:59;15.25;;;8.82;;
72194;SDS011;60095;50.180;9.032;2022-10-13T14:38:25;9.32;;;8.13;;
72194;SDS011;60095;50.180;9.032;2022-10-13T14:40:52;10.18;;;7.47;;
72194;SDS011;60095;50.180;9.032;2022-10-13T14:43:22;9.50;;;8.02;;
72194;SDS011;60095;50.180;9.032;2022-10-13T14:45:49;7.40;;;6.55;;
72194;SDS011;60095;50.180;9.032;2022-10-13T14:48:15;7.22;;;6.50;;
72194;SDS011;60095;50.180;9.032;2022-10-13T14:50:41;8.90;;;7.95;;
72194;SDS011;60095;50.180;9.032;2022-10-13T14:53:09;10.30;;;9.18;;
72194;SDS011;60095;50.180;9.032;2022-10-13T14:55:39;8.77;;;7.95;;
72194;SDS011;60095;50.180;9.032;2022-10-13T14:58:06;11.15;;;8.32;;